Tacoma, Washington
Current Conditions -  °F | °C
As of 12:58 AM on Thursday 27 Nov 2014 (Local Time) from KTCM Reporting Station
Light Rain Light Rain  
Wind Chill: 60°   Ceiling: 5000
Heat Index: 60°   Visibility: 10mi
Dew Point: 42°   Wind: 21mph
Humidity: 53%   Direction: 200°SSW
Pressure: 29.9"   Gusts: 31mph
Location:  47.26°N, 122.44°W
Report Text: KTCM 270858Z AUTO 20018G27KT 10SM -RA OVC050 15/06 A2990 RMK AO2 PK WND 18027/54 RAB0815 SLP129 P0000 60000 T01530057 55002 $
Loading
Personal Weather Stations






























Interactive Weather Map New forecast layout! Learn more

10-Day Weather Forecast

Advertisements
Track Severe Weather on mobile